Hlavní strana
METAR-TAF:

METAR-TAF

Letiště :

N'Djamena, Čad

zeměpisná šířka: 12-08N, zeměpisná délka: 015-02E, výška: 295 m

Aktuální stav počasí

Zpráva byla vytvořena před 1 hodinou a 1 minutami, v 10:00 UTC
Severoseverovýchodní vítr 12 kt, proměnlivý mezi severoseverovýchodním a východním
Teplota 28°C
Vlhkost vzduchu 12%
Tlak 1013 hPa
Viditelnost: 3500 m
rozsáhlý prach

METAR: FTTJ 251000Z 02012KT 020V100 3500 DU NSC 28/M04 Q1013 NOSIG

Čas: 12:01 (11:01 UTC)

Předpověď počasí

Zpráva byla vytvořena před 6 hodinami a 1 minutami, v 05:00 UTC
Předpověď platná od 25 v 06 UTC do 26 v 12 UTC
Severoseverovýchodní vítr 10 kt
Viditelnost: 3000 m
rozsáhlý prach
Změna
od 25 v 15 UTC do 25 v 17 UTC
Viditelnost: 6000 m
Dočasný
od 25 v 20 UTC do 26 v 02 UTC
Viditelnost: 4000 m
rozsáhlý prach

TAF: FTTJ 250500Z 2506/2612 02010KT 3000 DU NSC BECMG 2515/2517 6000 NSW TEMPO 2520/2602 4000 DU

Stav a předpovědi počasí z více než 4 000 letišť (zprávy METAR a TAF).

Červené a žluté tečky na mapě představují dostupné meteorologické stanice.

Když kurzor umístíte na tečku, zobrazí se název stanice.

Pak kliknutím zobrazíte stav a předpověď počasí.

Chcete-li změnit mapu, kliknutím na zelené tlačítko se znaménkem +mapu přiblížíte, kliknutím na zelené tlačítko se znaménkem – mapu oddálíte a kliknutím na zelené šipky přejdete na sousední mapy.


METAR-TAF: